sensor_id;sensor_type;location;lat;lon;timestamp;P1;durP1;ratioP1;P2;durP2;ratioP2
49578;SDS011;35483;50.828;3.228;2022-09-09T00:03:31;9.68;;;2.55;;
49578;SDS011;35483;50.828;3.228;2022-09-09T00:06:20;3.97;;;2.60;;
49578;SDS011;35483;50.828;3.228;2022-09-09T00:11:51;6.07;;;2.92;;
49578;SDS011;35483;50.828;3.228;2022-09-09T00:20:12;5.28;;;2.28;;
49578;SDS011;35483;50.828;3.228;2022-09-09T00:22:47;3.85;;;2.28;;
49578;SDS011;35483;50.828;3.228;2022-09-09T00:28:36;5.60;;;2.50;;
49578;SDS011;35483;50.828;3.228;2022-09-09T00:31:12;4.15;;;2.20;;
49578;SDS011;35483;50.828;3.228;2022-09-09T00:33:44;5.03;;;2.13;;
49578;SDS011;35483;50.828;3.228;2022-09-09T00:36:15;3.15;;;1.83;;
49578;SDS011;35483;50.828;3.228;2022-09-09T00:38:55;3.70;;;2.10;;
49578;SDS011;35483;50.828;3.228;2022-09-09T00:55:26;5.80;;;1.90;;
49578;SDS011;35483;50.828;3.228;2022-09-09T00:57:58;5.38;;;2.20;;
49578;SDS011;35483;50.828;3.228;2022-09-09T01:00:25;3.53;;;2.13;;
49578;SDS011;35483;50.828;3.228;2022-09-09T01:05:36;5.95;;;2.25;;
49578;SDS011;35483;50.828;3.228;2022-09-09T01:10:58;2.38;;;1.80;;
49578;SDS011;35483;50.828;3.228;2022-09-09T01:13:26;3.63;;;2.35;;
49578;SDS011;35483;50.828;3.228;2022-09-09T01:15:57;5.13;;;2.15;;
49578;SDS011;35483;50.828;3.228;2022-09-09T01:18:37;7.15;;;2.05;;
49578;SDS011;35483;50.828;3.228;2022-09-09T01:26:43;5.20;;;2.17;;
49578;SDS011;35483;50.828;3.228;2022-09-09T01:29:11;3.40;;;1.75;;
49578;SDS011;35483;50.828;3.228;2022-09-09T01:31:40;6.25;;;2.33;;
49578;SDS011;35483;50.828;3.228;2022-09-09T01:34:22;6.57;;;2.13;;
49578;SDS011;35483;50.828;3.228;2022-09-09T01:36:53;3.15;;;1.73;;
49578;SDS011;35483;50.828;3.228;2022-09-09T01:39:24;3.72;;;1.80;;
49578;SDS011;35483;50.828;3.228;2022-09-09T01:41:50;5.03;;;1.80;;
49578;SDS011;35483;50.828;3.228;2022-09-09T01:44:18;4.97;;;2.65;;
49578;SDS011;35483;50.828;3.228;2022-09-09T01:46:45;5.93;;;2.13;;
49578;SDS011;35483;50.828;3.228;2022-09-09T01:49:10;4.43;;;2.20;;
49578;SDS011;35483;50.828;3.228;2022-09-09T01:51:36;5.45;;;2.10;;
49578;SDS011;35483;50.828;3.228;2022-09-09T01:54:05;3.38;;;1.95;;
49578;SDS011;35483;50.828;3.228;2022-09-09T01:56:37;5.75;;;2.15;;
49578;SDS011;35483;50.828;3.228;2022-09-09T01:59:28;4.15;;;2.20;;
49578;SDS011;35483;50.828;3.228;2022-09-09T02:02:33;5.90;;;2.22;;
49578;SDS011;35483;50.828;3.228;2022-09-09T02:05:12;4.93;;;2.55;;
49578;SDS011;35483;50.828;3.228;2022-09-09T02:07:54;4.35;;;2.20;;
49578;SDS011;35483;50.828;3.228;2022-09-09T02:10:35;5.50;;;2.60;;
49578;SDS011;35483;50.828;3.228;2022-09-09T02:13:14;7.10;;;2.55;;
49578;SDS011;35483;50.828;3.228;2022-09-09T02:15:49;7.47;;;4.60;;
49578;SDS011;35483;50.828;3.228;2022-09-09T02:18:27;13.82;;;6.88;;
49578;SDS011;35483;50.828;3.228;2022-09-09T02:20:58;9.23;;;5.35;;
49578;SDS011;35483;50.828;3.228;2022-09-09T02:23:24;5.97;;;3.63;;
49578;SDS011;35483;50.828;3.228;2022-09-09T02:25:50;8.68;;;3.50;;
49578;SDS011;35483;50.828;3.228;2022-09-09T02:28:18;7.15;;;2.85;;
49578;SDS011;35483;50.828;3.228;2022-09-09T02:30:46;6.82;;;2.63;;
49578;SDS011;35483;50.828;3.228;2022-09-09T02:33:21;7.65;;;2.95;;
49578;SDS011;35483;50.828;3.228;2022-09-09T02:35:51;9.80;;;2.85;;
49578;SDS011;35483;50.828;3.228;2022-09-09T02:38:18;7.75;;;3.50;;
49578;SDS011;35483;50.828;3.228;2022-09-09T02:40:46;5.60;;;2.83;;
49578;SDS011;35483;50.828;3.228;2022-09-09T02:43:13;8.85;;;3.40;;
49578;SDS011;35483;50.828;3.228;2022-09-09T02:45:42;6.95;;;2.70;;
49578;SDS011;35483;50.828;3.228;2022-09-09T02:51:10;6.95;;;2.95;;
49578;SDS011;35483;50.828;3.228;2022-09-09T02:54:04;10.05;;;3.97;;
49578;SDS011;35483;50.828;3.228;2022-09-09T02:56:42;9.60;;;3.60;;
49578;SDS011;35483;50.828;3.228;2022-09-09T02:59:15;11.52;;;5.00;;
49578;SDS011;35483;50.828;3.228;2022-09-09T03:01:42;9.98;;;5.60;;
49578;SDS011;35483;50.828;3.228;2022-09-09T03:04:09;14.70;;;4.90;;
49578;SDS011;35483;50.828;3.228;2022-09-09T03:06:34;11.13;;;4.15;;
49578;SDS011;35483;50.828;3.228;2022-09-09T03:09:00;9.32;;;3.00;;
49578;SDS011;35483;50.828;3.228;2022-09-09T03:11:27;8.38;;;3.45;;
49578;SDS011;35483;50.828;3.228;2022-09-09T03:13:54;11.30;;;2.90;;
49578;SDS011;35483;50.828;3.228;2022-09-09T03:16:21;6.47;;;2.58;;
49578;SDS011;35483;50.828;3.228;2022-09-09T03:18:47;7.75;;;2.42;;
49578;SDS011;35483;50.828;3.228;2022-09-09T03:21:14;7.68;;;2.88;;
49578;SDS011;35483;50.828;3.228;2022-09-09T03:23:41;7.47;;;2.65;;
49578;SDS011;35483;50.828;3.228;2022-09-09T03:26:07;4.80;;;2.75;;
49578;SDS011;35483;50.828;3.228;2022-09-09T03:28:32;7.35;;;3.25;;
49578;SDS011;35483;50.828;3.228;2022-09-09T03:30:59;10.68;;;3.33;;
49578;SDS011;35483;50.828;3.228;2022-09-09T03:33:26;9.52;;;4.05;;
49578;SDS011;35483;50.828;3.228;2022-09-09T03:35:53;8.60;;;3.67;;
49578;SDS011;35483;50.828;3.228;2022-09-09T03:38:22;12.13;;;3.28;;
49578;SDS011;35483;50.828;3.228;2022-09-09T03:40:50;9.38;;;3.22;;
49578;SDS011;35483;50.828;3.228;2022-09-09T03:43:19;9.15;;;3.10;;
49578;SDS011;35483;50.828;3.228;2022-09-09T03:45:46;8.57;;;2.95;;
49578;SDS011;35483;50.828;3.228;2022-09-09T03:48:15;7.80;;;2.80;;
49578;SDS011;35483;50.828;3.228;2022-09-09T03:50:45;8.80;;;3.90;;
49578;SDS011;35483;50.828;3.228;2022-09-09T03:53:12;8.95;;;2.95;;
49578;SDS011;35483;50.828;3.228;2022-09-09T03:55:43;8.65;;;2.85;;
49578;SDS011;35483;50.828;3.228;2022-09-09T03:58:10;11.68;;;4.00;;
49578;SDS011;35483;50.828;3.228;2022-09-09T04:00:37;11.30;;;5.97;;
49578;SDS011;35483;50.828;3.228;2022-09-09T04:03:07;14.55;;;6.90;;
49578;SDS011;35483;50.828;3.228;2022-09-09T04:05:33;13.02;;;5.00;;
49578;SDS011;35483;50.828;3.228;2022-09-09T04:07:59;12.27;;;5.53;;
49578;SDS011;35483;50.828;3.228;2022-09-09T04:10:25;7.50;;;3.10;;
49578;SDS011;35483;50.828;3.228;2022-09-09T04:12:51;6.57;;;2.30;;
49578;SDS011;35483;50.828;3.228;2022-09-09T04:15:18;6.40;;;2.70;;
49578;SDS011;35483;50.828;3.228;2022-09-09T04:17:44;6.93;;;2.40;;
49578;SDS011;35483;50.828;3.228;2022-09-09T04:20:09;8.52;;;2.85;;
49578;SDS011;35483;50.828;3.228;2022-09-09T04:22:37;6.72;;;2.67;;
49578;SDS011;35483;50.828;3.228;2022-09-09T04:25:05;8.63;;;3.53;;
49578;SDS011;35483;50.828;3.228;2022-09-09T04:27:31;6.35;;;3.22;;
49578;SDS011;35483;50.828;3.228;2022-09-09T04:29:57;6.80;;;3.13;;
49578;SDS011;35483;50.828;3.228;2022-09-09T04:32:23;6.57;;;2.67;;
49578;SDS011;35483;50.828;3.228;2022-09-09T04:34:52;5.95;;;2.60;;
49578;SDS011;35483;50.828;3.228;2022-09-09T04:37:17;11.00;;;3.38;;
49578;SDS011;35483;50.828;3.228;2022-09-09T04:39:43;11.65;;;3.88;;
49578;SDS011;35483;50.828;3.228;2022-09-09T04:42:10;10.55;;;3.92;;
49578;SDS011;35483;50.828;3.228;2022-09-09T04:44:37;9.13;;;3.47;;
49578;SDS011;35483;50.828;3.228;2022-09-09T04:47:02;13.10;;;4.22;;
49578;SDS011;35483;50.828;3.228;2022-09-09T04:49:28;6.13;;;2.78;;
49578;SDS011;35483;50.828;3.228;2022-09-09T04:51:55;9.02;;;2.90;;
49578;SDS011;35483;50.828;3.228;2022-09-09T04:54:21;14.27;;;3.65;;
49578;SDS011;35483;50.828;3.228;2022-09-09T04:56:47;9.77;;;3.70;;
49578;SDS011;35483;50.828;3.228;2022-09-09T04:59:15;8.15;;;2.65;;
49578;SDS011;35483;50.828;3.228;2022-09-09T05:01:41;9.57;;;2.97;;
49578;SDS011;35483;50.828;3.228;2022-09-09T05:04:07;8.95;;;2.95;;
49578;SDS011;35483;50.828;3.228;2022-09-09T05:06:34;8.20;;;3.67;;
49578;SDS011;35483;50.828;3.228;2022-09-09T05:09:01;9.10;;;4.10;;
49578;SDS011;35483;50.828;3.228;2022-09-09T05:11:28;11.07;;;4.88;;
49578;SDS011;35483;50.828;3.228;2022-09-09T05:13:55;7.38;;;3.60;;
49578;SDS011;35483;50.828;3.228;2022-09-09T05:16:30;11.10;;;3.20;;
49578;SDS011;35483;50.828;3.228;2022-09-09T05:18:56;9.55;;;3.22;;
49578;SDS011;35483;50.828;3.228;2022-09-09T05:21:22;10.13;;;3.58;;
49578;SDS011;35483;50.828;3.228;2022-09-09T05:23:51;5.68;;;2.95;;
49578;SDS011;35483;50.828;3.228;2022-09-09T05:26:18;10.02;;;3.08;;
49578;SDS011;35483;50.828;3.228;2022-09-09T05:28:45;7.32;;;2.55;;
49578;SDS011;35483;50.828;3.228;2022-09-09T05:31:12;8.32;;;3.03;;
49578;SDS011;35483;50.828;3.228;2022-09-09T05:33:40;8.55;;;3.55;;
49578;SDS011;35483;50.828;3.228;2022-09-09T05:36:08;10.43;;;3.33;;
49578;SDS011;35483;50.828;3.228;2022-09-09T05:38:38;7.10;;;3.38;;
49578;SDS011;35483;50.828;3.228;2022-09-09T05:41:04;10.57;;;3.63;;
49578;SDS011;35483;50.828;3.228;2022-09-09T05:43:31;9.60;;;3.58;;
49578;SDS011;35483;50.828;3.228;2022-09-09T05:46:04;9.27;;;2.97;;
49578;SDS011;35483;50.828;3.228;2022-09-09T05:48:33;8.43;;;3.70;;
49578;SDS011;35483;50.828;3.228;2022-09-09T05:51:01;8.27;;;3.13;;
49578;SDS011;35483;50.828;3.228;2022-09-09T05:53:27;8.57;;;3.15;;
49578;SDS011;35483;50.828;3.228;2022-09-09T05:56:00;6.38;;;3.10;;
49578;SDS011;35483;50.828;3.228;2022-09-09T05:58:29;9.90;;;3.25;;
49578;SDS011;35483;50.828;3.228;2022-09-09T06:01:03;8.98;;;3.10;;
